sensor_id;sensor_type;location;lat;lon;timestamp;P1;durP1;ratioP1;P2;durP2;ratioP2
21000;SDS011;10658;50.920;12.238;2022-10-16T00:02:38;0.60;;;0.57;;
21000;SDS011;10658;50.920;12.238;2022-10-16T00:06:39;0.73;;;0.38;;
21000;SDS011;10658;50.920;12.238;2022-10-16T00:10:41;0.60;;;0.40;;
21000;SDS011;10658;50.920;12.238;2022-10-16T00:14:42;0.60;;;0.50;;
21000;SDS011;10658;50.920;12.238;2022-10-16T00:18:44;2.20;;;0.60;;
21000;SDS011;10658;50.920;12.238;2022-10-16T00:22:46;0.52;;;0.40;;
21000;SDS011;10658;50.920;12.238;2022-10-16T00:31:10;1.10;;;0.70;;
21000;SDS011;10658;50.920;12.238;2022-10-16T00:35:12;0.57;;;0.43;;
21000;SDS011;10658;50.920;12.238;2022-10-16T00:39:13;0.80;;;0.63;;
21000;SDS011;10658;50.920;12.238;2022-10-16T00:47:44;0.93;;;0.45;;
21000;SDS011;10658;50.920;12.238;2022-10-16T00:51:49;0.30;;;0.30;;
21000;SDS011;10658;50.920;12.238;2022-10-16T00:55:53;0.50;;;0.50;;
21000;SDS011;10658;50.920;12.238;2022-10-16T00:59:54;1.33;;;0.50;;
21000;SDS011;10658;50.920;12.238;2022-10-16T01:03:55;0.45;;;0.45;;
21000;SDS011;10658;50.920;12.238;2022-10-16T01:08:08;0.40;;;0.40;;
21000;SDS011;10658;50.920;12.238;2022-10-16T01:16:43;2.03;;;0.40;;
21000;SDS011;10658;50.920;12.238;2022-10-16T01:20:58;0.60;;;0.60;;
21000;SDS011;10658;50.920;12.238;2022-10-16T01:25:05;0.90;;;0.35;;
21000;SDS011;10658;50.920;12.238;2022-10-16T01:29:16;1.45;;;0.60;;
21000;SDS011;10658;50.920;12.238;2022-10-16T01:33:29;0.60;;;0.60;;
21000;SDS011;10658;50.920;12.238;2022-10-16T01:41:43;0.80;;;0.60;;
21000;SDS011;10658;50.920;12.238;2022-10-16T01:45:49;1.25;;;0.60;;
21000;SDS011;10658;50.920;12.238;2022-10-16T01:49:52;0.75;;;0.60;;
21000;SDS011;10658;50.920;12.238;2022-10-16T01:53:55;1.25;;;0.70;;
21000;SDS011;10658;50.920;12.238;2022-10-16T01:58:00;0.70;;;0.50;;
21000;SDS011;10658;50.920;12.238;2022-10-16T02:02:06;0.80;;;0.70;;
21000;SDS011;10658;50.920;12.238;2022-10-16T02:06:10;1.27;;;0.70;;
21000;SDS011;10658;50.920;12.238;2022-10-16T02:10:12;0.50;;;0.50;;
21000;SDS011;10658;50.920;12.238;2022-10-16T02:14:14;0.93;;;0.47;;
21000;SDS011;10658;50.920;12.238;2022-10-16T02:18:15;1.00;;;0.82;;
21000;SDS011;10658;50.920;12.238;2022-10-16T02:26:52;1.08;;;0.80;;
21000;SDS011;10658;50.920;12.238;2022-10-16T02:31:16;0.60;;;0.60;;
21000;SDS011;10658;50.920;12.238;2022-10-16T02:35:25;0.55;;;0.55;;
21000;SDS011;10658;50.920;12.238;2022-10-16T02:39:28;0.68;;;0.50;;
21000;SDS011;10658;50.920;12.238;2022-10-16T02:43:30;0.93;;;0.93;;
21000;SDS011;10658;50.920;12.238;2022-10-16T02:47:32;3.63;;;0.90;;
21000;SDS011;10658;50.920;12.238;2022-10-16T02:51:33;3.70;;;1.05;;
21000;SDS011;10658;50.920;12.238;2022-10-16T02:55:35;0.73;;;0.73;;
21000;SDS011;10658;50.920;12.238;2022-10-16T02:59:36;0.57;;;0.57;;
21000;SDS011;10658;50.920;12.238;2022-10-16T03:03:39;0.95;;;0.80;;
21000;SDS011;10658;50.920;12.238;2022-10-16T03:07:40;0.90;;;0.80;;
21000;SDS011;10658;50.920;12.238;2022-10-16T03:11:42;1.10;;;0.80;;
21000;SDS011;10658;50.920;12.238;2022-10-16T03:15:43;1.83;;;0.98;;
21000;SDS011;10658;50.920;12.238;2022-10-16T03:19:44;0.85;;;0.77;;
21000;SDS011;10658;50.920;12.238;2022-10-16T03:23:45;1.20;;;0.90;;
21000;SDS011;10658;50.920;12.238;2022-10-16T03:27:46;1.00;;;0.90;;
21000;SDS011;10658;50.920;12.238;2022-10-16T03:31:47;1.55;;;0.80;;
21000;SDS011;10658;50.920;12.238;2022-10-16T03:35:50;3.15;;;0.70;;
21000;SDS011;10658;50.920;12.238;2022-10-16T03:39:55;5.43;;;1.00;;
21000;SDS011;10658;50.920;12.238;2022-10-16T03:43:56;2.58;;;0.70;;
21000;SDS011;10658;50.920;12.238;2022-10-16T03:47:57;1.50;;;0.82;;
21000;SDS011;10658;50.920;12.238;2022-10-16T03:51:59;0.77;;;0.60;;
21000;SDS011;10658;50.920;12.238;2022-10-16T03:56:00;1.17;;;0.70;;
21000;SDS011;10658;50.920;12.238;2022-10-16T04:00:01;2.75;;;0.80;;
21000;SDS011;10658;50.920;12.238;2022-10-16T04:04:12;1.13;;;0.77;;
21000;SDS011;10658;50.920;12.238;2022-10-16T04:08:13;1.25;;;0.50;;
21000;SDS011;10658;50.920;12.238;2022-10-16T04:12:15;2.50;;;1.00;;
21000;SDS011;10658;50.920;12.238;2022-10-16T04:16:16;2.08;;;0.52;;
21000;SDS011;10658;50.920;12.238;2022-10-16T04:20:17;1.42;;;0.40;;
21000;SDS011;10658;50.920;12.238;2022-10-16T04:24:18;0.60;;;0.50;;
21000;SDS011;10658;50.920;12.238;2022-10-16T04:28:20;0.70;;;0.65;;
21000;SDS011;10658;50.920;12.238;2022-10-16T04:32:21;3.97;;;0.70;;
21000;SDS011;10658;50.920;12.238;2022-10-16T04:36:22;1.77;;;0.70;;
21000;SDS011;10658;50.920;12.238;2022-10-16T04:40:23;0.65;;;0.65;;
21000;SDS011;10658;50.920;12.238;2022-10-16T04:44:24;0.85;;;0.52;;
21000;SDS011;10658;50.920;12.238;2022-10-16T04:48:26;0.68;;;0.60;;
21000;SDS011;10658;50.920;12.238;2022-10-16T04:52:27;1.00;;;0.90;;
21000;SDS011;10658;50.920;12.238;2022-10-16T04:56:28;0.65;;;0.60;;
21000;SDS011;10658;50.920;12.238;2022-10-16T05:00:30;0.65;;;0.50;;
21000;SDS011;10658;50.920;12.238;2022-10-16T05:04:31;0.85;;;0.60;;
21000;SDS011;10658;50.920;12.238;2022-10-16T05:08:33;0.75;;;0.50;;
21000;SDS011;10658;50.920;12.238;2022-10-16T05:12:33;0.93;;;0.68;;
21000;SDS011;10658;50.920;12.238;2022-10-16T05:16:35;0.77;;;0.65;;
21000;SDS011;10658;50.920;12.238;2022-10-16T05:20:36;0.77;;;0.60;;
21000;SDS011;10658;50.920;12.238;2022-10-16T05:24:37;1.95;;;0.70;;
21000;SDS011;10658;50.920;12.238;2022-10-16T05:28:39;1.00;;;0.50;;
21000;SDS011;10658;50.920;12.238;2022-10-16T05:32:40;0.88;;;0.47;;
21000;SDS011;10658;50.920;12.238;2022-10-16T05:36:42;0.60;;;0.45;;
21000;SDS011;10658;50.920;12.238;2022-10-16T05:40:50;1.60;;;0.47;;
21000;SDS011;10658;50.920;12.238;2022-10-16T05:49:17;0.38;;;0.38;;
21000;SDS011;10658;50.920;12.238;2022-10-16T05:53:17;0.35;;;0.30;;
21000;SDS011;10658;50.920;12.238;2022-10-16T05:57:25;0.90;;;0.50;;
21000;SDS011;10658;50.920;12.238;2022-10-16T06:01:27;2.80;;;0.40;;
21000;SDS011;10658;50.920;12.238;2022-10-16T06:05:28;0.57;;;0.57;;
21000;SDS011;10658;50.920;12.238;2022-10-16T06:09:28;1.00;;;0.40;;
21000;SDS011;10658;50.920;12.238;2022-10-16T06:13:30;0.77;;;0.40;;
21000;SDS011;10658;50.920;12.238;2022-10-16T06:17:31;0.60;;;0.50;;
21000;SDS011;10658;50.920;12.238;2022-10-16T06:21:32;0.40;;;0.40;;
21000;SDS011;10658;50.920;12.238;2022-10-16T06:25:33;0.30;;;0.30;;
21000;SDS011;10658;50.920;12.238;2022-10-16T06:29:34;0.60;;;0.60;;
21000;SDS011;10658;50.920;12.238;2022-10-16T06:33:35;1.88;;;0.52;;
21000;SDS011;10658;50.920;12.238;2022-10-16T06:37:37;0.98;;;0.57;;
21000;SDS011;10658;50.920;12.238;2022-10-16T06:41:39;0.30;;;0.30;;
21000;SDS011;10658;50.920;12.238;2022-10-16T06:45:52;0.20;;;0.20;;
21000;SDS011;10658;50.920;12.238;2022-10-16T06:49:57;0.60;;;0.45;;
21000;SDS011;10658;50.920;12.238;2022-10-16T06:53:59;0.38;;;0.38;;
21000;SDS011;10658;50.920;12.238;2022-10-16T06:58:00;0.47;;;0.47;;
21000;SDS011;10658;50.920;12.238;2022-10-16T07:02:02;0.20;;;0.20;;
21000;SDS011;10658;50.920;12.238;2022-10-16T07:06:04;2.65;;;0.38;;
21000;SDS011;10658;50.920;12.238;2022-10-16T07:10:07;0.43;;;0.40;;
21000;SDS011;10658;50.920;12.238;2022-10-16T07:14:12;0.60;;;0.30;;
21000;SDS011;10658;50.920;12.238;2022-10-16T07:18:18;0.43;;;0.43;;
21000;SDS011;10658;50.920;12.238;2022-10-16T07:22:20;1.75;;;1.65;;
21000;SDS011;10658;50.920;12.238;2022-10-16T07:26:22;2.70;;;2.50;;
21000;SDS011;10658;50.920;12.238;2022-10-16T07:30:24;3.45;;;1.80;;
21000;SDS011;10658;50.920;12.238;2022-10-16T07:34:25;3.13;;;1.83;;
21000;SDS011;10658;50.920;12.238;2022-10-16T07:38:27;4.38;;;2.22;;
21000;SDS011;10658;50.920;12.238;2022-10-16T07:42:28;4.25;;;2.65;;
21000;SDS011;10658;50.920;12.238;2022-10-16T07:46:29;1.25;;;1.15;;
21000;SDS011;10658;50.920;12.238;2022-10-16T07:50:32;1.15;;;1.00;;
21000;SDS011;10658;50.920;12.238;2022-10-16T07:54:33;0.90;;;0.90;;
21000;SDS011;10658;50.920;12.238;2022-10-16T07:58:35;0.52;;;0.52;;
21000;SDS011;10658;50.920;12.238;2022-10-16T08:02:39;1.90;;;1.80;;
21000;SDS011;10658;50.920;12.238;2022-10-16T08:06:41;0.85;;;0.60;;
21000;SDS011;10658;50.920;12.238;2022-10-16T08:10:42;13.65;;;9.35;;
21000;SDS011;10658;50.920;12.238;2022-10-16T08:14:44;5.38;;;4.88;;
21000;SDS011;10658;50.920;12.238;2022-10-16T08:18:45;2.35;;;2.08;;
21000;SDS011;10658;50.920;12.238;2022-10-16T08:22:46;1.60;;;1.50;;
21000;SDS011;10658;50.920;12.238;2022-10-16T08:26:47;3.42;;;0.90;;
21000;SDS011;10658;50.920;12.238;2022-10-16T08:30:48;0.68;;;0.68;;
21000;SDS011;10658;50.920;12.238;2022-10-16T08:34:49;1.00;;;0.90;;
21000;SDS011;10658;50.920;12.238;2022-10-16T08:38:50;2.58;;;1.08;;
21000;SDS011;10658;50.920;12.238;2022-10-16T08:51:53;0.70;;;0.63;;
21000;SDS011;10658;50.920;12.238;2022-10-16T08:55:57;1.20;;;0.85;;
21000;SDS011;10658;50.920;12.238;2022-10-16T09:00:08;2.97;;;1.10;;
21000;SDS011;10658;50.920;12.238;2022-10-16T09:09:07;1.67;;;1.25;;
21000;SDS011;10658;50.920;12.238;2022-10-16T09:22:12;1.23;;;0.90;;
21000;SDS011;10658;50.920;12.238;2022-10-16T09:26:14;2.15;;;1.17;;
21000;SDS011;10658;50.920;12.238;2022-10-16T09:30:19;1.38;;;0.98;;
21000;SDS011;10658;50.920;12.238;2022-10-16T09:38:30;2.88;;;1.15;;
21000;SDS011;10658;50.920;12.238;2022-10-16T09:42:34;1.75;;;1.10;;
21000;SDS011;10658;50.920;12.238;2022-10-16T09:46:37;1.55;;;1.40;;
21000;SDS011;10658;50.920;12.238;2022-10-16T09:50:40;1.60;;;1.40;;
21000;SDS011;10658;50.920;12.238;2022-10-16T09:54:49;2.10;;;1.30;;
21000;SDS011;10658;50.920;12.238;2022-10-16T09:58:57;5.95;;;1.40;;
21000;SDS011;10658;50.920;12.238;2022-10-16T10:03:10;1.98;;;0.88;;
21000;SDS011;10658;50.920;12.238;2022-10-16T10:07:19;0.93;;;0.93;;
21000;SDS011;10658;50.920;12.238;2022-10-16T10:11:39;1.25;;;0.98;;
21000;SDS011;10658;50.920;12.238;2022-10-16T10:15:42;1.20;;;1.10;;
21000;SDS011;10658;50.920;12.238;2022-10-16T10:23:55;3.42;;;1.02;;
21000;SDS011;10658;50.920;12.238;2022-10-16T10:36:32;1.48;;;0.75;;
21000;SDS011;10658;50.920;12.238;2022-10-16T10:53:57;1.58;;;0.90;;
21000;SDS011;10658;50.920;12.238;2022-10-16T11:07:05;1.95;;;0.90;;
21000;SDS011;10658;50.920;12.238;2022-10-16T11:11:46;1.25;;;0.70;;
21000;SDS011;10658;50.920;12.238;2022-10-16T11:15:44;1.45;;;0.93;;
21000;SDS011;10658;50.920;12.238;2022-10-16T11:19:49;1.27;;;1.02;;
21000;SDS011;10658;50.920;12.238;2022-10-16T11:32:28;0.70;;;0.70;;
21000;SDS011;10658;50.920;12.238;2022-10-16T11:36:51;1.23;;;0.70;;
21000;SDS011;10658;50.920;12.238;2022-10-16T11:41:03;1.17;;;0.98;;
21000;SDS011;10658;50.920;12.238;2022-10-16T11:49:42;1.45;;;0.95;;
21000;SDS011;10658;50.920;12.238;2022-10-16T11:58:28;3.05;;;0.90;;
21000;SDS011;10658;50.920;12.238;2022-10-16T12:07:19;1.42;;;0.90;;
21000;SDS011;10658;50.920;12.238;2022-10-16T12:15:30;1.10;;;1.00;;
21000;SDS011;10658;50.920;12.238;2022-10-16T12:19:33;0.90;;;0.90;;
21000;SDS011;10658;50.920;12.238;2022-10-16T12:23:38;1.17;;;0.70;;
21000;SDS011;10658;50.920;12.238;2022-10-16T12:36:31;0.88;;;0.80;;
21000;SDS011;10658;50.920;12.238;2022-10-16T12:40:34;1.27;;;0.70;;
21000;SDS011;10658;50.920;12.238;2022-10-16T12:44:37;1.77;;;0.75;;
21000;SDS011;10658;50.920;12.238;2022-10-16T12:48:40;0.65;;;0.65;;
21000;SDS011;10658;50.920;12.238;2022-10-16T12:52:45;1.23;;;0.50;;
21000;SDS011;10658;50.920;12.238;2022-10-16T13:22:56;1.02;;;0.52;;
21000;SDS011;10658;50.920;12.238;2022-10-16T13:32:06;0.70;;;0.70;;
21000;SDS011;10658;50.920;12.238;2022-10-16T13:36:20;2.45;;;0.80;;
21000;SDS011;10658;50.920;12.238;2022-10-16T13:40:23;0.73;;;0.73;;
21000;SDS011;10658;50.920;12.238;2022-10-16T13:44:25;1.73;;;0.60;;
21000;SDS011;10658;50.920;12.238;2022-10-16T13:48:28;2.25;;;0.90;;
21000;SDS011;10658;50.920;12.238;2022-10-16T13:52:30;0.93;;;0.60;;
21000;SDS011;10658;50.920;12.238;2022-10-16T13:56:33;0.50;;;0.50;;
21000;SDS011;10658;50.920;12.238;2022-10-16T14:00:34;0.80;;;0.68;;
21000;SDS011;10658;50.920;12.238;2022-10-16T14:04:37;0.95;;;0.60;;
21000;SDS011;10658;50.920;12.238;2022-10-16T14:08:41;0.60;;;0.60;;
21000;SDS011;10658;50.920;12.238;2022-10-16T14:12:44;2.00;;;0.68;;
21000;SDS011;10658;50.920;12.238;2022-10-16T14:16:46;0.55;;;0.50;;
21000;SDS011;10658;50.920;12.238;2022-10-16T14:20:47;1.05;;;0.60;;
21000;SDS011;10658;50.920;12.238;2022-10-16T14:24:50;0.40;;;0.40;;
21000;SDS011;10658;50.920;12.238;2022-10-16T14:29:03;0.75;;;0.75;;
21000;SDS011;10658;50.920;12.238;2022-10-16T14:33:21;1.80;;;0.70;;
21000;SDS011;10658;50.920;12.238;2022-10-16T14:37:34;0.65;;;0.32;;
21000;SDS011;10658;50.920;12.238;2022-10-16T14:41:41;1.58;;;0.30;;
21000;SDS011;10658;50.920;12.238;2022-10-16T14:45:49;0.40;;;0.40;;
21000;SDS011;10658;50.920;12.238;2022-10-16T14:49:53;1.13;;;0.40;;
21000;SDS011;10658;50.920;12.238;2022-10-16T14:53:56;1.10;;;0.90;;
21000;SDS011;10658;50.920;12.238;2022-10-16T14:57:57;0.98;;;0.88;;
21000;SDS011;10658;50.920;12.238;2022-10-16T15:01:58;1.83;;;1.45;;
21000;SDS011;10658;50.920;12.238;2022-10-16T15:05:59;2.17;;;1.58;;
21000;SDS011;10658;50.920;12.238;2022-10-16T15:10:01;4.70;;;2.05;;
21000;SDS011;10658;50.920;12.238;2022-10-16T15:14:02;1.50;;;1.30;;
21000;SDS011;10658;50.920;12.238;2022-10-16T15:18:04;3.38;;;1.83;;
21000;SDS011;10658;50.920;12.238;2022-10-16T15:22:05;2.85;;;1.75;;
21000;SDS011;10658;50.920;12.238;2022-10-16T15:26:07;0.88;;;0.80;;
21000;SDS011;10658;50.920;12.238;2022-10-16T15:30:08;1.20;;;0.98;;
21000;SDS011;10658;50.920;12.238;2022-10-16T15:34:10;1.67;;;1.00;;
21000;SDS011;10658;50.920;12.238;2022-10-16T15:38:12;1.92;;;1.50;;
21000;SDS011;10658;50.920;12.238;2022-10-16T15:42:14;1.55;;;1.15;;
21000;SDS011;10658;50.920;12.238;2022-10-16T15:46:17;2.20;;;1.90;;
21000;SDS011;10658;50.920;12.238;2022-10-16T15:50:20;4.13;;;3.33;;
21000;SDS011;10658;50.920;12.238;2022-10-16T15:54:21;6.78;;;4.78;;
21000;SDS011;10658;50.920;12.238;2022-10-16T15:58:23;5.07;;;4.25;;
21000;SDS011;10658;50.920;12.238;2022-10-16T16:02:24;2.80;;;2.47;;
21000;SDS011;10658;50.920;12.238;2022-10-16T16:06:26;4.63;;;2.33;;
21000;SDS011;10658;50.920;12.238;2022-10-16T16:10:27;4.60;;;2.70;;
21000;SDS011;10658;50.920;12.238;2022-10-16T16:14:29;2.67;;;2.47;;
21000;SDS011;10658;50.920;12.238;2022-10-16T16:18:29;3.65;;;2.22;;
21000;SDS011;10658;50.920;12.238;2022-10-16T16:22:31;4.22;;;3.65;;
21000;SDS011;10658;50.920;12.238;2022-10-16T16:26:32;3.75;;;3.45;;
21000;SDS011;10658;50.920;12.238;2022-10-16T16:30:37;6.20;;;3.83;;
21000;SDS011;10658;50.920;12.238;2022-10-16T16:34:38;4.32;;;2.60;;
21000;SDS011;10658;50.920;12.238;2022-10-16T16:38:39;3.67;;;2.40;;
21000;SDS011;10658;50.920;12.238;2022-10-16T16:42:41;7.05;;;3.88;;
21000;SDS011;10658;50.920;12.238;2022-10-16T16:46:43;5.75;;;3.33;;
21000;SDS011;10658;50.920;12.238;2022-10-16T16:50:45;5.35;;;2.90;;
21000;SDS011;10658;50.920;12.238;2022-10-16T16:54:47;3.00;;;2.03;;
21000;SDS011;10658;50.920;12.238;2022-10-16T16:58:53;3.17;;;2.30;;
21000;SDS011;10658;50.920;12.238;2022-10-16T17:03:17;1.70;;;1.25;;
21000;SDS011;10658;50.920;12.238;2022-10-16T17:07:19;2.33;;;1.92;;
21000;SDS011;10658;50.920;12.238;2022-10-16T17:11:22;1.95;;;1.30;;
21000;SDS011;10658;50.920;12.238;2022-10-16T17:15:24;3.40;;;1.52;;
21000;SDS011;10658;50.920;12.238;2022-10-16T17:19:26;4.32;;;1.77;;
21000;SDS011;10658;50.920;12.238;2022-10-16T17:23:27;3.08;;;2.20;;
21000;SDS011;10658;50.920;12.238;2022-10-16T17:27:28;1.73;;;1.42;;
21000;SDS011;10658;50.920;12.238;2022-10-16T17:31:31;1.92;;;1.10;;
21000;SDS011;10658;50.920;12.238;2022-10-16T17:35:40;1.02;;;0.88;;
21000;SDS011;10658;50.920;12.238;2022-10-16T17:39:42;2.90;;;1.15;;
21000;SDS011;10658;50.920;12.238;2022-10-16T17:43:43;1.50;;;1.40;;
21000;SDS011;10658;50.920;12.238;2022-10-16T17:47:45;1.10;;;1.05;;
21000;SDS011;10658;50.920;12.238;2022-10-16T17:51:51;4.50;;;3.05;;
21000;SDS011;10658;50.920;12.238;2022-10-16T17:55:53;8.18;;;5.57;;
21000;SDS011;10658;50.920;12.238;2022-10-16T18:04:16;4.10;;;3.67;;
21000;SDS011;10658;50.920;12.238;2022-10-16T18:08:17;4.45;;;3.50;;
21000;SDS011;10658;50.920;12.238;2022-10-16T18:12:22;5.80;;;3.55;;
21000;SDS011;10658;50.920;12.238;2022-10-16T18:16:24;6.22;;;4.30;;
21000;SDS011;10658;50.920;12.238;2022-10-16T18:20:26;5.85;;;3.95;;
21000;SDS011;10658;50.920;12.238;2022-10-16T18:24:28;6.85;;;4.57;;
21000;SDS011;10658;50.920;12.238;2022-10-16T18:28:29;2.85;;;2.58;;
21000;SDS011;10658;50.920;12.238;2022-10-16T18:32:30;5.65;;;3.85;;
21000;SDS011;10658;50.920;12.238;2022-10-16T18:36:32;6.70;;;5.43;;
21000;SDS011;10658;50.920;12.238;2022-10-16T18:40:34;4.63;;;3.85;;
21000;SDS011;10658;50.920;12.238;2022-10-16T18:44:35;3.50;;;2.97;;
21000;SDS011;10658;50.920;12.238;2022-10-16T18:48:38;3.83;;;3.05;;
21000;SDS011;10658;50.920;12.238;2022-10-16T18:52:45;3.38;;;2.38;;
21000;SDS011;10658;50.920;12.238;2022-10-16T18:56:49;2.60;;;1.90;;
21000;SDS011;10658;50.920;12.238;2022-10-16T19:00:51;3.20;;;2.83;;
21000;SDS011;10658;50.920;12.238;2022-10-16T19:04:52;2.50;;;1.67;;
21000;SDS011;10658;50.920;12.238;2022-10-16T19:08:54;1.40;;;1.30;;
21000;SDS011;10658;50.920;12.238;2022-10-16T19:12:55;1.25;;;1.15;;
21000;SDS011;10658;50.920;12.238;2022-10-16T19:16:57;5.03;;;3.55;;
21000;SDS011;10658;50.920;12.238;2022-10-16T19:21:02;4.18;;;3.58;;
21000;SDS011;10658;50.920;12.238;2022-10-16T19:25:05;4.88;;;4.18;;
21000;SDS011;10658;50.920;12.238;2022-10-16T19:29:06;2.50;;;2.30;;
21000;SDS011;10658;50.920;12.238;2022-10-16T19:33:08;2.22;;;1.73;;
21000;SDS011;10658;50.920;12.238;2022-10-16T19:37:09;1.30;;;1.20;;
21000;SDS011;10658;50.920;12.238;2022-10-16T19:41:11;2.65;;;1.60;;
21000;SDS011;10658;50.920;12.238;2022-10-16T19:45:14;1.75;;;1.50;;
21000;SDS011;10658;50.920;12.238;2022-10-16T19:49:16;3.03;;;2.10;;
21000;SDS011;10658;50.920;12.238;2022-10-16T19:53:20;4.53;;;2.67;;
21000;SDS011;10658;50.920;12.238;2022-10-16T19:57:21;3.80;;;2.30;;
21000;SDS011;10658;50.920;12.238;2022-10-16T20:01:24;2.15;;;1.40;;
21000;SDS011;10658;50.920;12.238;2022-10-16T20:05:27;2.85;;;2.03;;
21000;SDS011;10658;50.920;12.238;2022-10-16T20:09:28;1.98;;;1.83;;
21000;SDS011;10658;50.920;12.238;2022-10-16T20:13:29;3.70;;;1.80;;
21000;SDS011;10658;50.920;12.238;2022-10-16T20:17:31;5.88;;;2.28;;
21000;SDS011;10658;50.920;12.238;2022-10-16T20:21:34;2.45;;;1.83;;
21000;SDS011;10658;50.920;12.238;2022-10-16T20:25:39;3.13;;;1.60;;
21000;SDS011;10658;50.920;12.238;2022-10-16T20:29:41;2.72;;;1.40;;
21000;SDS011;10658;50.920;12.238;2022-10-16T20:33:42;3.20;;;1.80;;
21000;SDS011;10658;50.920;12.238;2022-10-16T20:37:43;2.92;;;1.40;;
21000;SDS011;10658;50.920;12.238;2022-10-16T20:41:48;3.08;;;1.52;;
21000;SDS011;10658;50.920;12.238;2022-10-16T20:45:57;1.67;;;1.38;;
21000;SDS011;10658;50.920;12.238;2022-10-16T20:50:02;5.72;;;2.17;;
21000;SDS011;10658;50.920;12.238;2022-10-16T20:54:04;1.77;;;1.63;;
21000;SDS011;10658;50.920;12.238;2022-10-16T20:58:05;1.83;;;1.60;;
21000;SDS011;10658;50.920;12.238;2022-10-16T21:06:20;1.88;;;1.42;;
21000;SDS011;10658;50.920;12.238;2022-10-16T21:10:21;1.85;;;1.65;;
21000;SDS011;10658;50.920;12.238;2022-10-16T21:14:22;3.13;;;1.60;;
21000;SDS011;10658;50.920;12.238;2022-10-16T21:18:23;2.25;;;1.80;;
21000;SDS011;10658;50.920;12.238;2022-10-16T21:22:27;2.28;;;2.08;;
21000;SDS011;10658;50.920;12.238;2022-10-16T21:26:30;3.58;;;1.73;;
21000;SDS011;10658;50.920;12.238;2022-10-16T21:30:31;2.40;;;1.80;;
21000;SDS011;10658;50.920;12.238;2022-10-16T21:34:33;4.65;;;1.98;;
21000;SDS011;10658;50.920;12.238;2022-10-16T21:38:34;2.97;;;2.08;;
21000;SDS011;10658;50.920;12.238;2022-10-16T21:42:35;4.15;;;2.42;;
21000;SDS011;10658;50.920;12.238;2022-10-16T21:46:37;4.05;;;2.78;;
21000;SDS011;10658;50.920;12.238;2022-10-16T21:50:45;3.78;;;2.53;;
21000;SDS011;10658;50.920;12.238;2022-10-16T21:54:47;3.17;;;2.78;;
21000;SDS011;10658;50.920;12.238;2022-10-16T21:58:48;4.80;;;2.00;;
21000;SDS011;10658;50.920;12.238;2022-10-16T22:02:49;2.90;;;1.90;;
21000;SDS011;10658;50.920;12.238;2022-10-16T22:06:50;3.72;;;1.92;;
21000;SDS011;10658;50.920;12.238;2022-10-16T22:10:51;3.90;;;2.28;;
21000;SDS011;10658;50.920;12.238;2022-10-16T22:14:52;1.92;;;1.58;;
21000;SDS011;10658;50.920;12.238;2022-10-16T22:18:54;3.58;;;1.65;;
21000;SDS011;10658;50.920;12.238;2022-10-16T22:22:56;1.98;;;1.73;;
21000;SDS011;10658;50.920;12.238;2022-10-16T22:26:57;3.15;;;2.03;;
21000;SDS011;10658;50.920;12.238;2022-10-16T22:31:05;3.85;;;2.05;;
21000;SDS011;10658;50.920;12.238;2022-10-16T22:35:08;2.28;;;1.92;;
21000;SDS011;10658;50.920;12.238;2022-10-16T22:39:11;4.72;;;2.10;;
21000;SDS011;10658;50.920;12.238;2022-10-16T22:43:12;2.65;;;2.42;;
21000;SDS011;10658;50.920;12.238;2022-10-16T22:47:13;2.72;;;2.13;;
21000;SDS011;10658;50.920;12.238;2022-10-16T22:51:14;3.78;;;1.98;;
21000;SDS011;10658;50.920;12.238;2022-10-16T22:55:15;2.28;;;1.85;;
21000;SDS011;10658;50.920;12.238;2022-10-16T22:59:17;4.45;;;2.35;;
21000;SDS011;10658;50.920;12.238;2022-10-16T23:03:18;2.33;;;2.13;;
21000;SDS011;10658;50.920;12.238;2022-10-16T23:07:19;5.35;;;2.05;;
21000;SDS011;10658;50.920;12.238;2022-10-16T23:11:20;3.78;;;1.98;;
21000;SDS011;10658;50.920;12.238;2022-10-16T23:15:21;2.65;;;2.03;;
21000;SDS011;10658;50.920;12.238;2022-10-16T23:19:22;3.95;;;2.10;;
21000;SDS011;10658;50.920;12.238;2022-10-16T23:23:23;4.07;;;2.40;;
21000;SDS011;10658;50.920;12.238;2022-10-16T23:27:24;2.42;;;1.90;;
21000;SDS011;10658;50.920;12.238;2022-10-16T23:31:25;2.20;;;2.00;;
21000;SDS011;10658;50.920;12.238;2022-10-16T23:35:27;1.98;;;1.75;;
21000;SDS011;10658;50.920;12.238;2022-10-16T23:39:28;3.55;;;1.98;;
21000;SDS011;10658;50.920;12.238;2022-10-16T23:43:29;2.97;;;2.00;;
21000;SDS011;10658;50.920;12.238;2022-10-16T23:47:30;2.50;;;2.00;;
21000;SDS011;10658;50.920;12.238;2022-10-16T23:51:31;4.15;;;2.55;;
21000;SDS011;10658;50.920;12.238;2022-10-16T23:55:32;5.95;;;2.25;;
21000;SDS011;10658;50.920;12.238;2022-10-16T23:59:33;4.20;;;2.17;;
